Vremea acum in Câmpulung - Romania

Vrei sa afli care e starea vremii acum in Giurgiu - Romania? Dorim sa iti furnizam starea vremii pentru Giurgiu - Romania. Starea vremii Giurgiu - Romania pentru astazi.

Vremea acum in Câmpulung

Temperatura: 8 °C

Este: Senin
Se simte ca: 7.6 °C
Innorat: 15 %
Precipitatii: 0 %
Presiune atmosferica: 1017 hPa
Umiditate: 92%
Vizibilitate: 10 km
Vantul bate din N cu 4.7 km/h

Evolutia vremii in Câmpulung pe ore

Ora: 06:00
Temperatura: 7.8°C
Sansa de precipitatii: 0%
Ora Descriere Temp Se simte Precipitatii Umiditate Vant
00:00Senin8.3°8.1°0%92%NNE 4.3 KM/H
01:00Senin7.6°0%92%N 4.7 KM/H
02:00Senin7.9°7.3°0%93%NNE 5 KM/H
03:00Senin7.7°6.9°0%93%NNE 5.8 KM/H
04:00Senin7.7°6.8°0%92%NNE 6.1 KM/H
05:00Senin7.7°6.7°0%92%NNE 6.1 KM/H
06:007.8°7.1°0%91%NNE 5.8 KM/H
07:00Senin9.1°8.9°0%88%NNE 4.3 KM/H
08:00Senin14.2°14.3°0%79%E 0.7 KM/H
09:00Senin16°16°0%72%S 4 KM/H
10:00Patchy rain nearby16.9°16.9°68%68%S 6.8 KM/H
11:00Patchy rain nearby17.9°17.9°100%64%S 8.6 KM/H
12:00Patchy rain nearby18.7°18.7°100%61%S 9.4 KM/H
13:00Patchy rain nearby19.3°19.3°100%58%SSW 10.8 KM/H
14:00Patchy rain nearby19.5°19.5°100%57%SSW 11.5 KM/H
15:00Patchy rain nearby19.1°19.1°100%60%SSW 11.2 KM/H
16:00Patchy rain nearby18.9°18.9°100%60%SSW 11.2 KM/H
17:00Patchy rain nearby18.3°18.3°100%64%SSW 10.8 KM/H
18:00Ploi usoare17°17°100%75%SW 8.6 KM/H
19:00Ploi usoare15.9°15.9°100%84%SW 4.7 KM/H
20:00Ploi usoare12.5°12.5°100%88%NW 1.8 KM/H
21:00Ploi usoare10.9°11°100%93%S 2.5 KM/H
22:00Ploi usoare11.4°11.9°100%97%ESE 3.6 KM/H
23:00Ceata11.2°11.3°100%96%ESE 4.3 KM/H




tutorials